sensor_id;sensor_type;location;lat;lon;timestamp;pressure;altitude;pressure_sealevel;temperature;humidity
27729;BME280;15126;42.186;24.340;2023-07-29T00:01:56;99008.00;;;22.35;53.49
27729;BME280;15126;42.186;24.340;2023-07-29T00:04:23;98999.50;;;22.24;52.77
27729;BME280;15126;42.186;24.340;2023-07-29T00:06:50;99010.63;;;22.27;52.94
27729;BME280;15126;42.186;24.340;2023-07-29T00:09:16;99010.88;;;22.18;53.15
27729;BME280;15126;42.186;24.340;2023-07-29T00:11:43;99018.63;;;22.18;52.16
27729;BME280;15126;42.186;24.340;2023-07-29T00:14:10;99009.59;;;22.14;52.98
27729;BME280;15126;42.186;24.340;2023-07-29T00:16:38;99013.72;;;22.07;54.01
27729;BME280;15126;42.186;24.340;2023-07-29T00:19:06;99012.44;;;22.08;54.09
27729;BME280;15126;42.186;24.340;2023-07-29T00:21:32;99004.94;;;22.05;52.94
27729;BME280;15126;42.186;24.340;2023-07-29T00:23:59;99000.81;;;22.01;53.22
27729;BME280;15126;42.186;24.340;2023-07-29T00:26:26;98994.09;;;21.92;55.45
27729;BME280;15126;42.186;24.340;2023-07-29T00:28:54;98999.00;;;21.92;54.16
27729;BME280;15126;42.186;24.340;2023-07-29T00:31:21;98997.19;;;21.89;53.76
27729;BME280;15126;42.186;24.340;2023-07-29T00:33:49;98992.75;;;21.82;54.12
27729;BME280;15126;42.186;24.340;2023-07-29T00:36:18;99012.63;;;21.82;54.39
27729;BME280;15126;42.186;24.340;2023-07-29T00:38:44;99000.78;;;21.78;53.95
27729;BME280;15126;42.186;24.340;2023-07-29T00:41:11;99001.53;;;21.68;53.89
27729;BME280;15126;42.186;24.340;2023-07-29T00:43:39;99006.97;;;21.71;53.90
27729;BME280;15126;42.186;24.340;2023-07-29T00:46:07;98995.88;;;21.68;53.39
27729;BME280;15126;42.186;24.340;2023-07-29T00:48:35;98986.56;;;21.62;53.80
27729;BME280;15126;42.186;24.340;2023-07-29T00:51:03;98981.41;;;21.60;54.69
27729;BME280;15126;42.186;24.340;2023-07-29T00:53:31;98994.03;;;21.59;54.84
27729;BME280;15126;42.186;24.340;2023-07-29T00:56:00;98998.16;;;21.58;55.37
27729;BME280;15126;42.186;24.340;2023-07-29T00:58:27;98991.44;;;21.56;53.31
27729;BME280;15126;42.186;24.340;2023-07-29T01:00:54;98995.59;;;21.49;54.79
27729;BME280;15126;42.186;24.340;2023-07-29T01:03:22;98986.03;;;21.47;54.15
27729;BME280;15126;42.186;24.340;2023-07-29T01:05:57;98992.22;;;21.45;54.67
27729;BME280;15126;42.186;24.340;2023-07-29T01:08:33;98992.72;;;21.44;55.19
27729;BME280;15126;42.186;24.340;2023-07-29T01:11:14;98993.75;;;21.41;56.67
27729;BME280;15126;42.186;24.340;2023-07-29T01:13:53;99000.22;;;21.41;55.61
27729;BME280;15126;42.186;24.340;2023-07-29T01:16:24;99004.31;;;21.40;56.31
27729;BME280;15126;42.186;24.340;2023-07-29T01:18:54;98990.66;;;21.39;55.58
27729;BME280;15126;42.186;24.340;2023-07-29T01:21:22;98988.31;;;21.37;56.20
27729;BME280;15126;42.186;24.340;2023-07-29T01:23:53;98973.09;;;21.29;56.70
27729;BME280;15126;42.186;24.340;2023-07-29T01:26:24;98994.25;;;21.39;56.07
27729;BME280;15126;42.186;24.340;2023-07-29T01:28:51;98981.59;;;21.29;57.18
27729;BME280;15126;42.186;24.340;2023-07-29T01:31:25;98994.00;;;21.37;57.07
27729;BME280;15126;42.186;24.340;2023-07-29T01:33:58;99008.72;;;21.35;56.22
27729;BME280;15126;42.186;24.340;2023-07-29T01:36:28;99006.91;;;21.32;55.88
27729;BME280;15126;42.186;24.340;2023-07-29T01:38:57;99005.34;;;21.31;56.43
27729;BME280;15126;42.186;24.340;2023-07-29T01:41:25;99005.84;;;21.30;56.28
27729;BME280;15126;42.186;24.340;2023-07-29T01:43:52;99001.19;;;21.27;56.93
27729;BME280;15126;42.186;24.340;2023-07-29T01:46:20;98991.41;;;21.22;57.40
27729;BME280;15126;42.186;24.340;2023-07-29T01:48:46;98996.03;;;21.25;56.89
27729;BME280;15126;42.186;24.340;2023-07-29T01:51:13;99005.06;;;21.24;56.82
27729;BME280;15126;42.186;24.340;2023-07-29T01:53:40;98998.34;;;21.21;57.65
27729;BME280;15126;42.186;24.340;2023-07-29T01:56:08;99000.16;;;21.19;58.19
27729;BME280;15126;42.186;24.340;2023-07-29T01:58:35;99005.28;;;21.15;58.12
27729;BME280;15126;42.186;24.340;2023-07-29T02:01:01;99008.88;;;21.10;58.54
27729;BME280;15126;42.186;24.340;2023-07-29T02:03:28;98999.78;;;21.00;58.03
27729;BME280;15126;42.186;24.340;2023-07-29T02:05:55;99014.53;;;21.10;57.33
27729;BME280;15126;42.186;24.340;2023-07-29T02:08:22;99014.28;;;21.08;57.46
27729;BME280;15126;42.186;24.340;2023-07-29T02:10:48;99001.81;;;20.94;57.12
27729;BME280;15126;42.186;24.340;2023-07-29T02:13:17;99008.31;;;21.00;57.69
27729;BME280;15126;42.186;24.340;2023-07-29T02:15:43;99010.59;;;20.96;57.46
27729;BME280;15126;42.186;24.340;2023-07-29T02:18:10;99013.44;;;20.96;58.53
27729;BME280;15126;42.186;24.340;2023-07-29T02:20:43;99027.59;;;20.96;58.12
27729;BME280;15126;42.186;24.340;2023-07-29T02:23:14;99023.47;;;20.92;58.94
27729;BME280;15126;42.186;24.340;2023-07-29T02:25:41;99015.19;;;20.88;58.90
27729;BME280;15126;42.186;24.340;2023-07-29T02:28:08;99015.94;;;20.83;57.81
27729;BME280;15126;42.186;24.340;2023-07-29T02:30:36;99022.88;;;20.82;58.14
27729;BME280;15126;42.186;24.340;2023-07-29T02:33:03;99022.13;;;20.76;58.75
27729;BME280;15126;42.186;24.340;2023-07-29T02:35:29;99024.41;;;20.72;58.79
27729;BME280;15126;42.186;24.340;2023-07-29T02:37:56;99020.75;;;20.66;59.13
27729;BME280;15126;42.186;24.340;2023-07-29T02:40:23;99025.63;;;20.60;58.82
27729;BME280;15126;42.186;24.340;2023-07-29T02:42:52;99025.31;;;20.52;58.62
27729;BME280;15126;42.186;24.340;2023-07-29T02:45:18;99034.06;;;20.49;60.13
27729;BME280;15126;42.186;24.340;2023-07-29T02:47:47;99038.16;;;20.48;60.90
27729;BME280;15126;42.186;24.340;2023-07-29T02:50:13;99018.03;;;20.40;61.34
27729;BME280;15126;42.186;24.340;2023-07-29T02:52:40;99031.41;;;20.40;62.21
27729;BME280;15126;42.186;24.340;2023-07-29T02:55:07;99036.28;;;20.39;61.17
27729;BME280;15126;42.186;24.340;2023-07-29T02:57:34;99049.69;;;20.39;60.90
27729;BME280;15126;42.186;24.340;2023-07-29T03:00:01;99045.81;;;20.36;61.66
27729;BME280;15126;42.186;24.340;2023-07-29T03:02:28;99045.53;;;20.34;60.81
27729;BME280;15126;42.186;24.340;2023-07-29T03:04:56;99049.88;;;20.30;61.17
27729;BME280;15126;42.186;24.340;2023-07-29T03:07:23;99029.91;;;20.13;61.58
27729;BME280;15126;42.186;24.340;2023-07-29T03:09:50;99054.44;;;20.22;61.88
27729;BME280;15126;42.186;24.340;2023-07-29T03:12:17;99046.38;;;20.14;62.40
27729;BME280;15126;42.186;24.340;2023-07-29T03:14:47;99039.09;;;20.02;62.08
27729;BME280;15126;42.186;24.340;2023-07-29T03:17:14;99048.16;;;20.12;61.97
27729;BME280;15126;42.186;24.340;2023-07-29T03:19:43;99056.66;;;20.12;63.32
27729;BME280;15126;42.186;24.340;2023-07-29T03:22:12;99058.44;;;20.09;63.03
27729;BME280;15126;42.186;24.340;2023-07-29T03:24:38;99054.81;;;20.09;62.38
27729;BME280;15126;42.186;24.340;2023-07-29T03:27:05;99053.56;;;20.10;61.74
27729;BME280;15126;42.186;24.340;2023-07-29T03:29:33;99051.22;;;20.08;62.41
27729;BME280;15126;42.186;24.340;2023-07-29T03:32:00;99054.28;;;20.05;63.46
27729;BME280;15126;42.186;24.340;2023-07-29T03:34:26;99059.16;;;20.04;63.12
27729;BME280;15126;42.186;24.340;2023-07-29T03:36:53;99060.22;;;20.07;62.87
27729;BME280;15126;42.186;24.340;2023-07-29T03:39:21;99068.72;;;20.07;62.46
27729;BME280;15126;42.186;24.340;2023-07-29T03:41:48;99067.94;;;20.06;63.40
27729;BME280;15126;42.186;24.340;2023-07-29T03:44:15;99067.44;;;20.08;62.19
27729;BME280;15126;42.186;24.340;2023-07-29T03:46:44;99067.66;;;20.04;61.67
27729;BME280;15126;42.186;24.340;2023-07-29T03:49:11;99058.91;;;20.02;62.78
27729;BME280;15126;42.186;24.340;2023-07-29T03:51:37;99078.78;;;20.08;62.21
27729;BME280;15126;42.186;24.340;2023-07-29T03:54:04;99074.63;;;20.09;61.63
27729;BME280;15126;42.186;24.340;2023-07-29T03:56:33;99083.13;;;20.09;62.07
27729;BME280;15126;42.186;24.340;2023-07-29T03:59:03;99078.00;;;20.07;62.46
27729;BME280;15126;42.186;24.340;2023-07-29T04:01:30;99079.53;;;20.08;62.40
27729;BME280;15126;42.186;24.340;2023-07-29T04:03:57;99077.00;;;20.10;61.24
27729;BME280;15126;42.186;24.340;2023-07-29T04:06:24;99079.63;;;20.19;59.91
27729;BME280;15126;42.186;24.340;2023-07-29T04:08:51;99083.19;;;20.40;59.35
27729;BME280;15126;42.186;24.340;2023-07-29T04:11:18;99085.81;;;20.86;59.19
27729;BME280;15126;42.186;24.340;2023-07-29T04:13:46;99078.06;;;21.29;56.96
27729;BME280;15126;42.186;24.340;2023-07-29T04:16:13;99078.94;;;21.57;55.72
27729;BME280;15126;42.186;24.340;2023-07-29T04:18:40;99085.25;;;22.00;57.26
27729;BME280;15126;42.186;24.340;2023-07-29T04:21:06;99084.75;;;22.51;54.42
27729;BME280;15126;42.186;24.340;2023-07-29T04:23:33;99092.41;;;23.18;54.34
27729;BME280;15126;42.186;24.340;2023-07-29T04:26:00;99089.28;;;23.79;50.50
27729;BME280;15126;42.186;24.340;2023-07-29T04:28:27;99083.91;;;24.46;50.07
27729;BME280;15126;42.186;24.340;2023-07-29T04:30:55;99082.13;;;24.97;47.70
27729;BME280;15126;42.186;24.340;2023-07-29T04:33:22;99085.78;;;25.40;44.83
27729;BME280;15126;42.186;24.340;2023-07-29T04:35:49;99083.03;;;25.72;43.58
27729;BME280;15126;42.186;24.340;2023-07-29T04:38:15;99083.59;;;25.89;43.93
27729;BME280;15126;42.186;24.340;2023-07-29T04:40:42;99084.34;;;26.08;45.04
27729;BME280;15126;42.186;24.340;2023-07-29T04:43:09;99081.63;;;26.16;45.53
27729;BME280;15126;42.186;24.340;2023-07-29T04:45:36;99094.63;;;26.17;44.40
27729;BME280;15126;42.186;24.340;2023-07-29T04:48:04;99072.06;;;26.13;46.79
27729;BME280;15126;42.186;24.340;2023-07-29T04:50:31;99089.47;;;26.28;47.27
27729;BME280;15126;42.186;24.340;2023-07-29T04:52:57;99083.41;;;26.19;46.27
27729;BME280;15126;42.186;24.340;2023-07-29T04:55:24;99099.19;;;26.25;44.60
27729;BME280;15126;42.186;24.340;2023-07-29T04:57:51;99092.28;;;26.15;44.92
27729;BME280;15126;42.186;24.340;2023-07-29T05:00:18;99089.91;;;26.19;44.66
27729;BME280;15126;42.186;24.340;2023-07-29T05:02:45;99091.28;;;26.13;43.41
27729;BME280;15126;42.186;24.340;2023-07-29T05:05:13;99078.56;;;26.14;47.23
27729;BME280;15126;42.186;24.340;2023-07-29T05:07:40;99075.53;;;26.06;47.86
27729;BME280;15126;42.186;24.340;2023-07-29T05:10:07;99093.28;;;26.18;44.51
27729;BME280;15126;42.186;24.340;2023-07-29T05:12:34;99098.06;;;26.28;46.57
27729;BME280;15126;42.186;24.340;2023-07-29T05:15:01;99095.13;;;26.34;44.17
27729;BME280;15126;42.186;24.340;2023-07-29T05:17:28;99092.94;;;26.40;45.43
27729;BME280;15126;42.186;24.340;2023-07-29T05:19:54;99066.59;;;26.28;42.60
27729;BME280;15126;42.186;24.340;2023-07-29T05:22:23;99097.38;;;26.54;44.46
27729;BME280;15126;42.186;24.340;2023-07-29T05:24:50;99093.66;;;26.59;44.36
27729;BME280;15126;42.186;24.340;2023-07-29T05:27:17;99086.19;;;26.69;41.30
27729;BME280;15126;42.186;24.340;2023-07-29T05:29:44;99082.78;;;26.71;44.02
27729;BME280;15126;42.186;24.340;2023-07-29T05:32:10;99104.75;;;26.94;41.33
27729;BME280;15126;42.186;24.340;2023-07-29T05:34:37;99111.38;;;26.89;40.36
27729;BME280;15126;42.186;24.340;2023-07-29T05:37:04;99099.13;;;26.89;41.97
27729;BME280;15126;42.186;24.340;2023-07-29T05:39:32;99097.94;;;26.84;42.80
27729;BME280;15126;42.186;24.340;2023-07-29T05:41:59;99113.34;;;27.07;42.71
27729;BME280;15126;42.186;24.340;2023-07-29T05:44:27;99115.13;;;27.10;43.60
27729;BME280;15126;42.186;24.340;2023-07-29T05:46:57;99114.69;;;27.19;44.63
27729;BME280;15126;42.186;24.340;2023-07-29T05:49:24;99104.13;;;27.28;42.00
27729;BME280;15126;42.186;24.340;2023-07-29T05:51:51;99122.22;;;27.49;42.93
27729;BME280;15126;42.186;24.340;2023-07-29T05:54:18;99112.06;;;27.61;43.63
27729;BME280;15126;42.186;24.340;2023-07-29T05:56:46;99110.16;;;27.76;42.87
27729;BME280;15126;42.186;24.340;2023-07-29T05:59:13;99110.44;;;27.86;41.67
27729;BME280;15126;42.186;24.340;2023-07-29T06:01:40;99097.09;;;28.02;41.57
27729;BME280;15126;42.186;24.340;2023-07-29T06:04:07;99090.56;;;28.14;40.61
27729;BME280;15126;42.186;24.340;2023-07-29T06:06:33;99105.88;;;28.17;40.00
27729;BME280;15126;42.186;24.340;2023-07-29T06:09:00;99094.06;;;28.20;39.52
27729;BME280;15126;42.186;24.340;2023-07-29T06:11:27;99090.63;;;28.22;39.62
27729;BME280;15126;42.186;24.340;2023-07-29T06:13:55;99105.06;;;28.50;40.54
27729;BME280;15126;42.186;24.340;2023-07-29T06:16:22;99100.59;;;28.62;42.15
27729;BME280;15126;42.186;24.340;2023-07-29T06:18:49;99094.22;;;28.77;41.54
27729;BME280;15126;42.186;24.340;2023-07-29T06:21:18;99086.44;;;28.85;39.36
27729;BME280;15126;42.186;24.340;2023-07-29T06:23:45;99091.47;;;28.92;39.68
27729;BME280;15126;42.186;24.340;2023-07-29T06:26:12;99080.94;;;28.94;35.65
27729;BME280;15126;42.186;24.340;2023-07-29T06:28:39;99076.59;;;29.01;40.61
27729;BME280;15126;42.186;24.340;2023-07-29T06:31:07;99093.94;;;29.16;39.90
27729;BME280;15126;42.186;24.340;2023-07-29T06:33:34;99092.50;;;29.30;40.06
27729;BME280;15126;42.186;24.340;2023-07-29T06:36:01;99094.28;;;29.41;38.30
27729;BME280;15126;42.186;24.340;2023-07-29T06:38:28;99089.00;;;29.52;42.31
27729;BME280;15126;42.186;24.340;2023-07-29T06:40:55;99087.91;;;29.71;38.24
27729;BME280;15126;42.186;24.340;2023-07-29T06:43:22;99081.66;;;29.80;38.20
27729;BME280;15126;42.186;24.340;2023-07-29T06:45:49;99085.47;;;29.75;37.53
27729;BME280;15126;42.186;24.340;2023-07-29T06:48:17;99076.16;;;29.89;36.43
27729;BME280;15126;42.186;24.340;2023-07-29T06:50:44;99074.63;;;30.03;38.62
27729;BME280;15126;42.186;24.340;2023-07-29T06:53:10;99077.38;;;30.17;39.17
27729;BME280;15126;42.186;24.340;2023-07-29T06:55:37;99079.31;;;30.29;37.85
27729;BME280;15126;42.186;24.340;2023-07-29T06:58:04;99078.97;;;30.40;38.33
27729;BME280;15126;42.186;24.340;2023-07-29T07:00:31;99074.19;;;30.58;39.24
27729;BME280;15126;42.186;24.340;2023-07-29T07:02:58;99069.59;;;30.62;36.47
27729;BME280;15126;42.186;24.340;2023-07-29T07:05:26;99075.34;;;30.78;36.65
27729;BME280;15126;42.186;24.340;2023-07-29T07:07:53;99069.78;;;30.87;34.58
27729;BME280;15126;42.186;24.340;2023-07-29T07:10:19;99071.31;;;30.96;34.17
27729;BME280;15126;42.186;24.340;2023-07-29T07:12:46;99061.72;;;31.01;36.20
27729;BME280;15126;42.186;24.340;2023-07-29T07:15:13;99064.38;;;30.99;32.88
27729;BME280;15126;42.186;24.340;2023-07-29T07:17:40;99059.59;;;31.09;32.41
27729;BME280;15126;42.186;24.340;2023-07-29T07:20:07;99054.78;;;31.04;34.33
27729;BME280;15126;42.186;24.340;2023-07-29T07:22:35;99052.84;;;31.14;37.66
27729;BME280;15126;42.186;24.340;2023-07-29T07:25:03;99058.78;;;31.16;33.69
27729;BME280;15126;42.186;24.340;2023-07-29T07:27:30;99059.72;;;31.26;35.68
27729;BME280;15126;42.186;24.340;2023-07-29T07:29:57;99051.66;;;31.32;31.65
27729;BME280;15126;42.186;24.340;2023-07-29T07:32:24;99047.03;;;31.29;35.97
27729;BME280;15126;42.186;24.340;2023-07-29T07:34:50;99042.25;;;31.24;31.97
27729;BME280;15126;42.186;24.340;2023-07-29T07:37:17;99049.56;;;31.25;33.81
27729;BME280;15126;42.186;24.340;2023-07-29T07:39:45;99052.78;;;31.37;36.70
27729;BME280;15126;42.186;24.340;2023-07-29T07:42:12;99044.88;;;31.45;34.72
27729;BME280;15126;42.186;24.340;2023-07-29T07:44:40;99042.56;;;31.43;34.53
27729;BME280;15126;42.186;24.340;2023-07-29T07:47:07;99043.47;;;31.61;32.12
27729;BME280;15126;42.186;24.340;2023-07-29T07:49:34;99047.53;;;31.65;33.28
27729;BME280;15126;42.186;24.340;2023-07-29T07:52:00;99037.16;;;31.62;30.17
27729;BME280;15126;42.186;24.340;2023-07-29T07:54:27;99034.81;;;31.68;30.51
27729;BME280;15126;42.186;24.340;2023-07-29T07:56:55;99033.00;;;31.80;32.00
27729;BME280;15126;42.186;24.340;2023-07-29T07:59:22;99021.88;;;31.77;32.07
27729;BME280;15126;42.186;24.340;2023-07-29T08:01:49;99027.47;;;31.75;32.26
27729;BME280;15126;42.186;24.340;2023-07-29T08:04:17;99026.88;;;31.76;32.45
27729;BME280;15126;42.186;24.340;2023-07-29T08:06:44;99022.97;;;31.49;30.92
27729;BME280;15126;42.186;24.340;2023-07-29T08:09:11;99012.41;;;31.37;31.92
27729;BME280;15126;42.186;24.340;2023-07-29T08:11:37;99015.50;;;31.46;32.46
27729;BME280;15126;42.186;24.340;2023-07-29T08:14:06;99011.63;;;31.44;31.61
27729;BME280;15126;42.186;24.340;2023-07-29T08:16:32;99011.25;;;31.47;31.23
27729;BME280;15126;42.186;24.340;2023-07-29T08:18:59;99002.63;;;31.47;32.27
27729;BME280;15126;42.186;24.340;2023-07-29T08:21:26;99002.38;;;31.53;31.46
27729;BME280;15126;42.186;24.340;2023-07-29T08:23:53;98995.81;;;31.60;32.86
27729;BME280;15126;42.186;24.340;2023-07-29T08:26:20;99001.44;;;31.43;29.98
27729;BME280;15126;42.186;24.340;2023-07-29T08:28:48;99014.50;;;31.51;30.74
27729;BME280;15126;42.186;24.340;2023-07-29T08:31:16;99003.09;;;31.68;34.08
27729;BME280;15126;42.186;24.340;2023-07-29T08:33:43;99007.03;;;31.80;30.46
27729;BME280;15126;42.186;24.340;2023-07-29T08:36:10;99006.97;;;31.96;30.19
27729;BME280;15126;42.186;24.340;2023-07-29T08:38:36;99004.00;;;32.11;30.56
27729;BME280;15126;42.186;24.340;2023-07-29T08:41:10;99007.75;;;32.21;32.33
27729;BME280;15126;42.186;24.340;2023-07-29T08:43:52;99007.66;;;32.36;30.23
27729;BME280;15126;42.186;24.340;2023-07-29T08:46:20;99004.69;;;32.44;29.26
27729;BME280;15126;42.186;24.340;2023-07-29T08:48:47;98998.75;;;32.42;30.02
27729;BME280;15126;42.186;24.340;2023-07-29T08:51:14;98990.91;;;32.34;28.65
27729;BME280;15126;42.186;24.340;2023-07-29T08:53:42;98988.47;;;32.48;30.86
27729;BME280;15126;42.186;24.340;2023-07-29T08:56:09;98983.16;;;32.45;31.28
27729;BME280;15126;42.186;24.340;2023-07-29T08:58:37;98976.47;;;32.59;29.96
27729;BME280;15126;42.186;24.340;2023-07-29T09:01:06;98976.47;;;32.59;30.15
27729;BME280;15126;42.186;24.340;2023-07-29T09:03:34;98973.19;;;32.63;30.11
27729;BME280;15126;42.186;24.340;2023-07-29T09:06:03;98970.81;;;32.69;28.69
27729;BME280;15126;42.186;24.340;2023-07-29T09:08:30;98958.00;;;32.79;31.27
27729;BME280;15126;42.186;24.340;2023-07-29T09:10:59;98955.09;;;32.79;27.77
27729;BME280;15126;42.186;24.340;2023-07-29T09:13:26;98952.38;;;32.98;30.18
27729;BME280;15126;42.186;24.340;2023-07-29T09:15:54;98951.72;;;33.08;28.43
27729;BME280;15126;42.186;24.340;2023-07-29T09:18:22;98942.63;;;33.11;27.99
27729;BME280;15126;42.186;24.340;2023-07-29T09:20:50;98947.56;;;33.18;29.91
27729;BME280;15126;42.186;24.340;2023-07-29T09:23:17;98944.06;;;33.20;30.69
27729;BME280;15126;42.186;24.340;2023-07-29T09:25:45;98934.34;;;33.25;28.94
27729;BME280;15126;42.186;24.340;2023-07-29T09:28:13;98933.16;;;33.28;28.17
27729;BME280;15126;42.186;24.340;2023-07-29T09:30:42;98932.66;;;33.22;29.80
27729;BME280;15126;42.186;24.340;2023-07-29T09:33:09;98934.75;;;33.38;30.86
27729;BME280;15126;42.186;24.340;2023-07-29T09:35:36;98936.88;;;33.38;26.75
27729;BME280;15126;42.186;24.340;2023-07-29T09:38:06;98928.91;;;33.29;28.34
27729;BME280;15126;42.186;24.340;2023-07-29T09:40:36;98922.16;;;33.43;28.71
27729;BME280;15126;42.186;24.340;2023-07-29T09:43:06;98925.53;;;33.49;32.30
27729;BME280;15126;42.186;24.340;2023-07-29T09:45:34;98924.50;;;33.54;28.37
27729;BME280;15126;42.186;24.340;2023-07-29T09:48:02;98930.66;;;33.59;28.81
27729;BME280;15126;42.186;24.340;2023-07-29T09:50:30;98924.59;;;33.64;31.50
27729;BME280;15126;42.186;24.340;2023-07-29T09:52:57;98926.09;;;33.65;29.76
27729;BME280;15126;42.186;24.340;2023-07-29T09:55:26;98912.34;;;33.56;27.93
27729;BME280;15126;42.186;24.340;2023-07-29T09:57:54;98922.28;;;33.63;28.64
27729;BME280;15126;42.186;24.340;2023-07-29T10:00:22;98924.75;;;33.49;28.86
27729;BME280;15126;42.186;24.340;2023-07-29T10:02:49;98922.38;;;33.55;26.99
27729;BME280;15126;42.186;24.340;2023-07-29T10:05:17;98916.84;;;33.67;27.59
27729;BME280;15126;42.186;24.340;2023-07-29T10:07:44;98910.28;;;33.66;27.05
27729;BME280;15126;42.186;24.340;2023-07-29T10:10:13;98918.69;;;33.72;29.03
27729;BME280;15126;42.186;24.340;2023-07-29T10:12:44;98915.81;;;33.81;27.20
27729;BME280;15126;42.186;24.340;2023-07-29T10:15:11;98917.38;;;33.82;26.58
27729;BME280;15126;42.186;24.340;2023-07-29T10:17:39;98912.09;;;33.98;27.71
27729;BME280;15126;42.186;24.340;2023-07-29T10:20:08;98910.19;;;34.10;27.95
27729;BME280;15126;42.186;24.340;2023-07-29T10:22:37;98906.78;;;34.04;25.81
27729;BME280;15126;42.186;24.340;2023-07-29T10:25:07;98914.94;;;34.15;27.11
27729;BME280;15126;42.186;24.340;2023-07-29T10:27:46;98907.06;;;33.98;26.05
27729;BME280;15126;42.186;24.340;2023-07-29T10:30:14;98902.28;;;34.10;28.33
27729;BME280;15126;42.186;24.340;2023-07-29T10:32:42;98905.19;;;34.10;27.79
27729;BME280;15126;42.186;24.340;2023-07-29T10:35:11;98890.03;;;34.02;27.52
27729;BME280;15126;42.186;24.340;2023-07-29T10:37:38;98896.31;;;34.08;26.55
27729;BME280;15126;42.186;24.340;2023-07-29T10:40:07;98883.75;;;33.96;27.12
27729;BME280;15126;42.186;24.340;2023-07-29T10:42:35;98886.13;;;34.07;26.25
27729;BME280;15126;42.186;24.340;2023-07-29T10:47:57;98875.75;;;34.14;25.99
27729;BME280;15126;42.186;24.340;2023-07-29T10:50:23;98871.84;;;34.29;27.21
27729;BME280;15126;42.186;24.340;2023-07-29T10:52:52;98865.41;;;34.30;26.43
27729;BME280;15126;42.186;24.340;2023-07-29T10:55:29;98860.25;;;34.29;25.23
27729;BME280;15126;42.186;24.340;2023-07-29T10:58:12;98869.84;;;34.31;26.58
27729;BME280;15126;42.186;24.340;2023-07-29T11:00:41;98848.81;;;34.31;26.84
27729;BME280;15126;42.186;24.340;2023-07-29T11:03:12;98855.84;;;34.47;28.08
27729;BME280;15126;42.186;24.340;2023-07-29T11:05:54;98852.38;;;34.58;24.92
27729;BME280;15126;42.186;24.340;2023-07-29T11:08:22;98848.38;;;34.44;25.57
27729;BME280;15126;42.186;24.340;2023-07-29T11:11:02;98827.16;;;34.41;26.56
27729;BME280;15126;42.186;24.340;2023-07-29T11:13:29;98839.69;;;34.53;24.73
27729;BME280;15126;42.186;24.340;2023-07-29T11:15:57;98832.53;;;34.54;26.98
27729;BME280;15126;42.186;24.340;2023-07-29T11:18:29;98840.13;;;34.31;25.58
27729;BME280;15126;42.186;24.340;2023-07-29T11:20:57;98834.78;;;34.46;26.84
27729;BME280;15126;42.186;24.340;2023-07-29T11:23:29;98835.31;;;34.62;26.10
27729;BME280;15126;42.186;24.340;2023-07-29T11:25:56;98829.19;;;34.77;26.57
27729;BME280;15126;42.186;24.340;2023-07-29T11:28:24;98828.28;;;34.84;25.26
27729;BME280;15126;42.186;24.340;2023-07-29T11:30:51;98829.03;;;34.85;24.61
27729;BME280;15126;42.186;24.340;2023-07-29T11:33:19;98824.31;;;34.70;24.83
27729;BME280;15126;42.186;24.340;2023-07-29T11:35:47;98825.09;;;34.61;24.79
27729;BME280;15126;42.186;24.340;2023-07-29T11:38:15;98827.22;;;34.70;27.24
27729;BME280;15126;42.186;24.340;2023-07-29T11:40:43;98816.38;;;34.80;26.52
27729;BME280;15126;42.186;24.340;2023-07-29T11:43:17;98812.56;;;34.78;25.79
27729;BME280;15126;42.186;24.340;2023-07-29T11:45:45;98806.44;;;34.93;27.17
27729;BME280;15126;42.186;24.340;2023-07-29T11:48:14;98816.81;;;35.05;25.33
27729;BME280;15126;42.186;24.340;2023-07-29T11:50:41;98805.19;;;35.15;25.54
27729;BME280;15126;42.186;24.340;2023-07-29T11:53:11;98798.47;;;35.12;25.35
27729;BME280;15126;42.186;24.340;2023-07-29T11:55:37;98805.31;;;35.26;26.07
27729;BME280;15126;42.186;24.340;2023-07-29T11:58:04;98792.50;;;35.30;25.10
27729;BME280;15126;42.186;24.340;2023-07-29T12:00:31;98797.50;;;35.39;24.81
27729;BME280;15126;42.186;24.340;2023-07-29T12:03:00;98789.97;;;35.45;25.22
27729;BME280;15126;42.186;24.340;2023-07-29T12:05:30;98793.78;;;35.48;25.04
27729;BME280;15126;42.186;24.340;2023-07-29T12:07:57;98791.03;;;35.59;24.88
27729;BME280;15126;42.186;24.340;2023-07-29T12:10:26;98792.69;;;35.53;23.10
27729;BME280;15126;42.186;24.340;2023-07-29T12:12:53;98789.22;;;35.45;24.80
27729;BME280;15126;42.186;24.340;2023-07-29T12:15:23;98779.34;;;35.28;25.19
27729;BME280;15126;42.186;24.340;2023-07-29T12:17:53;98783.47;;;35.35;24.58
27729;BME280;15126;42.186;24.340;2023-07-29T12:20:21;98770.63;;;35.38;26.44
27729;BME280;15126;42.186;24.340;2023-07-29T12:22:52;98778.94;;;35.53;26.00
27729;BME280;15126;42.186;24.340;2023-07-29T12:25:19;98779.28;;;35.57;25.71
27729;BME280;15126;42.186;24.340;2023-07-29T12:27:48;98770.06;;;35.61;22.75
27729;BME280;15126;42.186;24.340;2023-07-29T12:30:15;98759.09;;;35.50;23.48
27729;BME280;15126;42.186;24.340;2023-07-29T12:32:45;98747.63;;;35.61;23.86
27729;BME280;15126;42.186;24.340;2023-07-29T12:35:14;98754.28;;;35.73;25.66
27729;BME280;15126;42.186;24.340;2023-07-29T12:37:45;98750.97;;;35.89;23.48
27729;BME280;15126;42.186;24.340;2023-07-29T12:40:22;98758.91;;;35.88;23.23
27729;BME280;15126;42.186;24.340;2023-07-29T12:42:51;98752.19;;;35.64;22.26
27729;BME280;15126;42.186;24.340;2023-07-29T12:45:18;98744.59;;;35.59;23.11
27729;BME280;15126;42.186;24.340;2023-07-29T12:47:46;98760.25;;;35.66;21.44
27729;BME280;15126;42.186;24.340;2023-07-29T12:50:13;98759.56;;;35.56;22.66
27729;BME280;15126;42.186;24.340;2023-07-29T12:52:41;98760.50;;;35.49;21.66
27729;BME280;15126;42.186;24.340;2023-07-29T12:55:08;98738.94;;;35.52;21.95
27729;BME280;15126;42.186;24.340;2023-07-29T12:57:39;98756.97;;;35.60;21.57